Time;durP1;ratioP1;P1;durP2;ratioP2;P2;SDS_P1;SDS_P2;PMS_P1;PMS_P2;Temp;Humidity;BMP_temperature;BMP_pressure;BME280_temperature;BME280_humidity;BME280_pressure;Samples;Min_cycle;Max_cycle;Signal;HPM_P1;HPM_P2
2024/04/01 00:00:06;;;;;;;1999.90;999.90;;;;;;;;;;5021085;28;20414;-86
2024/04/01 00:02:33;;;;;;;1999.90;999.90;;;;;;;;;;5021251;28;20054;-85
2024/04/01 00:04:59;;;;;;;1999.90;999.90;;;;;;;;;;5020566;28;20080;-86
2024/04/01 00:07:26;;;;;;;1999.90;999.90;;;;;;;;;;5018183;28;20053;-84
2024/04/01 00:09:51;;;;;;;1999.90;999.90;;;;;;;;;;5020961;28;20565;-84
2024/04/01 00:12:18;;;;;;;1999.90;999.90;;;;;;;;;;5020244;28;20045;-85
2024/04/01 00:14:45;;;;;;;1999.90;999.90;;;;;;;;;;5019492;28;20053;-85
2024/04/01 00:17:12;;;;;;;1999.90;999.90;;;;;;;;;;5033972;28;20069;-80
2024/04/01 00:19:37;;;;;;;1999.90;999.90;;;;;;;;;;5039572;28;20049;-79
2024/04/01 00:22:04;;;;;;;1999.90;999.90;;;;;;;;;;5023723;28;20534;-79
2024/04/01 00:24:30;;;;;;;1999.90;999.90;;;;;;;;;;5025473;28;20058;-80
2024/04/01 00:26:57;;;;;;;1999.90;999.90;;;;;;;;;;5021257;28;20049;-79
2024/04/01 00:29:23;;;;;;;1999.90;999.90;;;;;;;;;;5019703;28;20107;-80
2024/04/01 00:31:51;;;;;;;1999.90;999.90;;;;;;;;;;5017716;28;20046;-80
2024/04/01 00:34:17;;;;;;;1999.90;999.90;;;;;;;;;;5019051;28;20063;-80
2024/04/01 00:36:43;;;;;;;1999.90;999.90;;;;;;;;;;5017228;28;20388;-79
2024/04/01 00:39:09;;;;;;;1999.90;999.90;;;;;;;;;;5020974;28;20088;-79
2024/04/01 00:41:36;;;;;;;1999.90;999.90;;;;;;;;;;5019562;28;20516;-79
2024/04/01 00:44:01;;;;;;;1999.90;999.90;;;;;;;;;;5018442;28;20080;-79
2024/04/01 00:46:28;;;;;;;1999.90;999.90;;;;;;;;;;5023414;28;20045;-79
2024/04/01 00:48:55;;;;;;;1999.90;999.90;;;;;;;;;;5020002;28;20054;-79
2024/04/01 00:51:21;;;;;;;1999.90;999.90;;;;;;;;;;5022992;28;20053;-79
2024/04/01 00:53:47;;;;;;;1999.90;999.90;;;;;;;;;;5021086;28;20049;-79
2024/04/01 00:56:19;;;;;;;1999.90;999.90;;;;;;;;;;5025368;28;20574;-80
2024/04/01 00:58:45;;;;;;;1999.90;999.90;;;;;;;;;;5020329;28;20045;-78
2024/04/01 01:01:12;;;;;;;1999.90;999.90;;;;;;;;;;5020774;28;20518;-79
2024/04/01 01:03:38;;;;;;;1999.90;999.90;;;;;;;;;;5024143;28;20057;-79
2024/04/01 01:06:08;;;;;;;1999.90;999.90;;;;;;;;;;5025801;28;20422;-79
2024/04/01 01:08:33;;;;;;;1999.90;999.90;;;;;;;;;;5017259;28;20049;-79
2024/04/01 01:11:00;;;;;;;1999.90;999.90;;;;;;;;;;5022746;28;20109;-79
2024/04/01 01:13:26;;;;;;;1999.90;999.90;;;;;;;;;;5021911;28;20085;-80
2024/04/01 01:15:52;;;;;;;1999.90;999.90;;;;;;;;;;5021924;28;20084;-79
2024/04/01 01:18:18;;;;;;;1999.90;999.90;;;;;;;;;;5022760;28;20400;-80
2024/04/01 01:20:44;;;;;;;1999.90;999.90;;;;;;;;;;5023951;28;20059;-80
2024/04/01 01:23:11;;;;;;;1999.90;999.90;;;;;;;;;;5023173;28;20057;-80
2024/04/01 01:25:38;;;;;;;1999.90;999.90;;;;;;;;;;5021213;28;20103;-79
2024/04/01 01:28:05;;;;;;;1999.90;999.90;;;;;;;;;;5022898;28;20049;-84
2024/04/01 01:30:35;;;;;;;1999.90;999.90;;;;;;;;;;5005914;28;20081;-84
2024/04/01 01:33:03;;;;;;;1999.90;999.90;;;;;;;;;;5021231;28;20068;-85
2024/04/01 01:35:30;;;;;;;1999.90;999.90;;;;;;;;;;5022448;28;20056;-87
2024/04/01 01:37:56;;;;;;;1999.90;999.90;;;;;;;;;;5022666;28;20056;-86
2024/04/01 01:40:24;;;;;;;1999.90;999.90;;;;;;;;;;5020175;28;20053;-84
2024/04/01 01:42:50;;;;;;;1999.90;999.90;;;;;;;;;;5023946;28;20050;-84
2024/04/01 01:45:17;;;;;;;1999.90;999.90;;;;;;;;;;5021483;28;20061;-85
2024/04/01 01:47:42;;;;;;;1999.90;999.90;;;;;;;;;;5022103;28;20160;-83
2024/04/01 01:50:09;;;;;;;1999.90;999.90;;;;;;;;;;5018335;28;20145;-84
2024/04/01 01:52:35;;;;;;;1999.90;999.90;;;;;;;;;;5020112;28;20573;-86
2024/04/01 01:55:02;;;;;;;1999.90;999.90;;;;;;;;;;5019652;28;20141;-85
2024/04/01 01:57:30;;;;;;;1999.90;999.90;;;;;;;;;;5021231;28;20053;-84
2024/04/01 01:59:57;;;;;;;1999.90;999.90;;;;;;;;;;5019448;28;20050;-85
2024/04/01 02:02:28;;;;;;;1999.90;999.90;;;;;;;;;;5019082;28;20141;-85
2024/04/01 02:04:54;;;;;;;1999.90;999.90;;;;;;;;;;5025271;28;20056;-85
2024/04/01 02:07:20;;;;;;;1999.90;999.90;;;;;;;;;;5019550;28;20056;-86
2024/04/01 02:09:46;;;;;;;1999.90;999.90;;;;;;;;;;5021409;28;20053;-85
2024/04/01 02:12:12;;;;;;;1999.90;999.90;;;;;;;;;;5022990;28;20513;-84
2024/04/01 02:14:40;;;;;;;1999.90;999.90;;;;;;;;;;5023091;28;20132;-86
2024/04/01 02:17:07;;;;;;;1999.90;999.90;;;;;;;;;;5019623;28;20061;-84
2024/04/01 02:19:34;;;;;;;1999.90;999.90;;;;;;;;;;5019968;28;20061;-84
2024/04/01 02:21:59;;;;;;;1999.90;999.90;;;;;;;;;;5021312;28;20650;-85
2024/04/01 02:24:26;;;;;;;1999.90;999.90;;;;;;;;;;5018209;28;20152;-85
2024/04/01 02:26:51;;;;;;;1999.90;999.90;;;;;;;;;;5018065;28;20172;-85
2024/04/01 02:29:18;;;;;;;1999.90;999.90;;;;;;;;;;5022098;28;20053;-85
2024/04/01 02:31:46;;;;;;;1999.90;999.90;;;;;;;;;;5019149;28;20053;-86
2024/04/01 02:34:12;;;;;;;1999.90;999.90;;;;;;;;;;5021216;28;20057;-85
2024/04/01 02:36:38;;;;;;;1999.90;999.90;;;;;;;;;;5019717;28;20496;-84
2024/04/01 02:39:05;;;;;;;1999.90;999.90;;;;;;;;;;5018384;28;20060;-83
2024/04/01 02:41:31;;;;;;;1999.90;999.90;;;;;;;;;;5018972;28;20045;-84
2024/04/01 02:43:58;;;;;;;1999.90;999.90;;;;;;;;;;5019931;28;20464;-83
2024/04/01 02:46:23;;;;;;;1999.90;999.90;;;;;;;;;;5017708;28;20048;-83
2024/04/01 02:48:51;;;;;;;1999.90;999.90;;;;;;;;;;5022753;28;20041;-84
2024/04/01 02:51:17;;;;;;;1999.90;999.90;;;;;;;;;;5023059;28;20124;-83
2024/04/01 02:53:47;;;;;;;1999.90;999.90;;;;;;;;;;5022009;28;20064;-84
2024/04/01 02:56:13;;;;;;;1999.90;999.90;;;;;;;;;;5019275;28;20046;-84
2024/04/01 02:58:40;;;;;;;1999.90;999.90;;;;;;;;;;5032039;28;20088;-85
2024/04/01 03:01:15;;;;;;;1999.90;999.90;;;;;;;;;;5037271;28;20066;-85
2024/04/01 03:03:42;;;;;;;1999.90;999.90;;;;;;;;;;5026385;28;20050;-85
2024/04/01 03:06:09;;;;;;;1999.90;999.90;;;;;;;;;;5029310;28;20045;-86
2024/04/01 03:08:38;;;;;;;1999.90;999.90;;;;;;;;;;5022578;28;20088;-84
2024/04/01 03:11:04;;;;;;;1999.90;999.90;;;;;;;;;;5018765;28;20046;-84
2024/04/01 03:13:31;;;;;;;1999.90;999.90;;;;;;;;;;5018165;28;20491;-84
2024/04/01 03:15:57;;;;;;;1999.90;999.90;;;;;;;;;;5018349;28;20057;-84
2024/04/01 03:18:25;;;;;;;1999.90;999.90;;;;;;;;;;5016157;28;20152;-84
2024/04/01 03:20:52;;;;;;;1999.90;999.90;;;;;;;;;;5018984;28;20072;-85
2024/04/01 03:23:19;;;;;;;1999.90;999.90;;;;;;;;;;5021862;28;20482;-84
2024/04/01 03:25:50;;;;;;;1999.90;999.90;;;;;;;;;;5017547;28;20124;-84
2024/04/01 03:28:17;;;;;;;1999.90;999.90;;;;;;;;;;5017833;28;20057;-85
2024/04/01 03:30:43;;;;;;;1999.90;999.90;;;;;;;;;;5019688;28;20073;-85
2024/04/01 03:33:12;;;;;;;1999.90;999.90;;;;;;;;;;5020095;28;20799;-85
2024/04/01 03:35:37;;;;;;;1999.90;999.90;;;;;;;;;;5022317;28;20517;-84
2024/04/01 03:38:04;;;;;;;1999.90;999.90;;;;;;;;;;5018661;28;20137;-85
2024/04/01 03:40:32;;;;;;;1999.90;999.90;;;;;;;;;;5019415;28;20050;-83
2024/04/01 03:42:59;;;;;;;1999.90;999.90;;;;;;;;;;5018267;28;20063;-84
2024/04/01 03:45:24;;;;;;;1999.90;999.90;;;;;;;;;;5017360;28;20057;-83
2024/04/01 03:47:54;;;;;;;1999.90;999.90;;;;;;;;;;5018046;28;20423;-83
2024/04/01 03:50:20;;;;;;;1999.90;999.90;;;;;;;;;;5017078;28;20054;-83
2024/04/01 03:52:46;;;;;;;1999.90;999.90;;;;;;;;;;5016782;28;20212;-85
2024/04/01 03:55:12;;;;;;;1999.90;999.90;;;;;;;;;;5017744;28;20045;-85
2024/04/01 03:57:39;;;;;;;1999.90;999.90;;;;;;;;;;5018703;28;20053;-84
2024/04/01 04:00:08;;;;;;;1999.90;999.90;;;;;;;;;;5014261;28;20075;-85
2024/04/01 04:02:34;;;;;;;1999.90;999.90;;;;;;;;;;5016398;28;20127;-84
2024/04/01 04:05:01;;;;;;;1999.90;999.90;;;;;;;;;;5018191;28;20447;-84
2024/04/01 04:07:26;;;;;;;1999.90;999.90;;;;;;;;;;5017250;28;20821;-84
2024/04/01 04:09:53;;;;;;;1999.90;999.90;;;;;;;;;;5017575;28;20135;-84
2024/04/01 04:12:18;;;;;;;1999.90;999.90;;;;;;;;;;5020621;28;20137;-85
2024/04/01 04:14:46;;;;;;;1999.90;999.90;;;;;;;;;;5017739;28;20144;-83
2024/04/01 04:17:12;;;;;;;1999.90;999.90;;;;;;;;;;5018153;28;20053;-85
2024/04/01 04:19:38;;;;;;;1999.90;999.90;;;;;;;;;;5021165;28;20041;-84
2024/04/01 04:22:04;;;;;;;1999.90;999.90;;;;;;;;;;5026202;28;20049;-83
2024/04/01 04:24:30;;;;;;;1999.90;999.90;;;;;;;;;;5019327;28;20141;-84
2024/04/01 04:26:56;;;;;;;1999.90;999.90;;;;;;;;;;5022637;28;20080;-85
2024/04/01 04:29:22;;;;;;;1999.90;999.90;;;;;;;;;;5020949;28;20096;-84
2024/04/01 04:31:54;;;;;;;1999.90;999.90;;;;;;;;;;5021541;28;20411;-84
2024/04/01 04:34:20;;;;;;;1999.90;999.90;;;;;;;;;;5024034;28;20057;-84
2024/04/01 04:36:46;;;;;;;1999.90;999.90;;;;;;;;;;5022821;28;20128;-85
2024/04/01 04:39:19;;;;;;;1999.90;999.90;;;;;;;;;;5022112;28;20456;-84
2024/04/01 04:41:46;;;;;;;1999.90;999.90;;;;;;;;;;5022527;28;20484;-85
2024/04/01 04:44:13;;;;;;;1999.90;999.90;;;;;;;;;;5024422;28;20042;-84
2024/04/01 04:46:38;;;;;;;1999.90;999.90;;;;;;;;;;5024643;28;20156;-84
2024/04/01 04:49:06;;;;;;;1999.90;999.90;;;;;;;;;;5023287;28;20136;-84
2024/04/01 04:51:33;;;;;;;1999.90;999.90;;;;;;;;;;5018512;28;20754;-84
2024/04/01 04:54:00;;;;;;;1999.90;999.90;;;;;;;;;;5021622;28;20100;-84
2024/04/01 04:56:25;;;;;;;1999.90;999.90;;;;;;;;;;5025536;28;20055;-85
2024/04/01 04:58:53;;;;;;;1999.90;999.90;;;;;;;;;;5025399;28;20050;-84
2024/04/01 05:01:19;;;;;;;1999.90;999.90;;;;;;;;;;5021096;28;20053;-85
2024/04/01 05:03:46;;;;;;;1999.90;999.90;;;;;;;;;;5023169;28;20081;-85
2024/04/01 05:06:13;;;;;;;1999.90;999.90;;;;;;;;;;5023503;28;20042;-84
2024/04/01 05:08:39;;;;;;;1999.90;999.90;;;;;;;;;;5022682;28;20605;-86
2024/04/01 05:11:07;;;;;;;1999.90;999.90;;;;;;;;;;5023754;28;20038;-85
2024/04/01 05:13:33;;;;;;;1999.90;999.90;;;;;;;;;;5022573;28;20054;-84
2024/04/01 05:15:59;;;;;;;1999.90;999.90;;;;;;;;;;5024343;28;20069;-84
2024/04/01 05:18:26;;;;;;;1999.90;999.90;;;;;;;;;;5023025;28;20075;-84
2024/04/01 05:20:52;;;;;;;1999.90;999.90;;;;;;;;;;5021382;28;20160;-84
2024/04/01 05:23:19;;;;;;;1999.90;999.90;;;;;;;;;;5022647;28;20109;-84
2024/04/01 05:25:45;;;;;;;1999.90;999.90;;;;;;;;;;5025589;28;20537;-84
2024/04/01 05:28:12;;;;;;;1999.90;999.90;;;;;;;;;;5021644;28;20148;-84
2024/04/01 05:30:40;;;;;;;1999.90;999.90;;;;;;;;;;5020863;28;20053;-83
2024/04/01 05:33:07;;;;;;;1999.90;999.90;;;;;;;;;;5020328;28;20046;-83
2024/04/01 05:35:33;;;;;;;1999.90;999.90;;;;;;;;;;5022055;28;20799;-84
2024/04/01 05:38:00;;;;;;;1999.90;999.90;;;;;;;;;;5019138;28;20041;-83
2024/04/01 05:40:27;;;;;;;1999.90;999.90;;;;;;;;;;5018410;28;20464;-84
2024/04/01 05:42:53;;;;;;;1999.90;999.90;;;;;;;;;;5032549;28;20103;-84
2024/04/01 05:45:19;;;;;;;1999.90;999.90;;;;;;;;;;5040511;28;20113;-84
2024/04/01 05:47:48;;;;;;;1999.90;999.90;;;;;;;;;;5037078;28;20124;-84
2024/04/01 05:50:14;;;;;;;1999.90;999.90;;;;;;;;;;5022452;28;20041;-85
2024/04/01 05:52:40;;;;;;;1999.90;999.90;;;;;;;;;;5017601;28;20557;-83
2024/04/01 05:55:07;;;;;;;1999.90;999.90;;;;;;;;;;5018848;28;20086;-83
2024/04/01 05:57:35;;;;;;;1999.90;999.90;;;;;;;;;;5021184;28;20042;-83
2024/04/01 06:00:00;;;;;;;1999.90;999.90;;;;;;;;;;5020393;28;20050;-84
2024/04/01 06:02:27;;;;;;;1999.90;999.90;;;;;;;;;;5022149;28;20144;-84
2024/04/01 06:04:52;;;;;;;1999.90;999.90;;;;;;;;;;5023115;28;20045;-83
2024/04/01 06:07:19;;;;;;;1999.90;999.90;;;;;;;;;;5019911;28;20471;-83
2024/04/01 06:09:44;;;;;;;1999.90;999.90;;;;;;;;;;5019730;28;20420;-83
2024/04/01 06:12:11;;;;;;;1999.90;999.90;;;;;;;;;;5021406;28;20055;-83
2024/04/01 06:14:38;;;;;;;1999.90;999.90;;;;;;;;;;5021189;28;20802;-83
2024/04/01 06:17:05;;;;;;;1999.90;999.90;;;;;;;;;;5017599;28;20520;-83
2024/04/01 06:19:30;;;;;;;1999.90;999.90;;;;;;;;;;5017124;28;20050;-83
2024/04/01 06:21:57;;;;;;;1999.90;999.90;;;;;;;;;;5020258;28;20051;-83
2024/04/01 06:24:22;;;;;;;1999.90;999.90;;;;;;;;;;5023197;28;20053;-83
2024/04/01 06:26:49;;;;;;;1999.90;999.90;;;;;;;;;;5026678;28;20051;-84
2024/04/01 06:29:14;;;;;;;1999.90;999.90;;;;;;;;;;5015841;28;20048;-83
2024/04/01 06:31:42;;;;;;;1999.90;999.90;;;;;;;;;;5017748;28;20427;-84
2024/04/01 06:34:08;;;;;;;1999.90;999.90;;;;;;;;;;5018672;28;20053;-84
2024/04/01 06:36:34;;;;;;;1999.90;999.90;;;;;;;;;;5017225;28;20045;-84
2024/04/01 06:39:02;;;;;;;1999.90;999.90;;;;;;;;;;5021486;28;20806;-83
2024/04/01 06:41:29;;;;;;;1999.90;999.90;;;;;;;;;;5020958;28;20061;-83
2024/04/01 06:43:55;;;;;;;1999.90;999.90;;;;;;;;;;5018749;28;20044;-82
2024/04/01 06:46:21;;;;;;;1999.90;999.90;;;;;;;;;;5017333;28;20041;-83
2024/04/01 06:48:48;;;;;;;1999.90;999.90;;;;;;;;;;5020049;28;20113;-82
2024/04/01 06:51:15;;;;;;;1999.90;999.90;;;;;;;;;;5020130;28;20453;-82
2024/04/01 06:53:40;;;;;;;1999.90;999.90;;;;;;;;;;5018950;28;20053;-82
2024/04/01 06:56:08;;;;;;;1999.90;999.90;;;;;;;;;;5018800;28;20060;-84
2024/04/01 06:58:34;;;;;;;1999.90;999.90;;;;;;;;;;5018188;28;20494;-84
2024/04/01 07:01:00;;;;;;;1999.90;999.90;;;;;;;;;;5016935;28;20042;-82
2024/04/01 07:03:26;;;;;;;1999.90;999.90;;;;;;;;;;5016021;28;20058;-83
2024/04/01 07:05:54;;;;;;;1999.90;999.90;;;;;;;;;;5018712;28;20060;-85
2024/04/01 07:08:19;;;;;;;1999.90;999.90;;;;;;;;;;5020185;28;20068;-81
2024/04/01 07:10:46;;;;;;;1999.90;999.90;;;;;;;;;;5020975;28;20069;-82
2024/04/01 07:13:11;;;;;;;1999.90;999.90;;;;;;;;;;5017462;28;20088;-84
2024/04/01 07:15:39;;;;;;;1999.90;999.90;;;;;;;;;;5017431;28;20570;-83
2024/04/01 07:18:05;;;;;;;1999.90;999.90;;;;;;;;;;5016370;28;20796;-83
2024/04/01 07:20:31;;;;;;;1999.90;999.90;;;;;;;;;;5021902;28;20056;-81
2024/04/01 07:22:58;;;;;;;1999.90;999.90;;;;;;;;;;5020319;28;20057;-82
2024/04/01 07:25:25;;;;;;;1999.90;999.90;;;;;;;;;;5020514;28;20054;-83
2024/04/01 07:27:50;;;;;;;1999.90;999.90;;;;;;;;;;5015488;28;20072;-86
2024/04/01 07:30:17;;;;;;;1999.90;999.90;;;;;;;;;;5012857;28;20428;-83
2024/04/01 07:32:43;;;;;;;1999.90;999.90;;;;;;;;;;5020302;28;20145;-84
2024/04/01 07:35:11;;;;;;;1999.90;999.90;;;;;;;;;;5017193;28;20061;-83
2024/04/01 07:37:36;;;;;;;1999.90;999.90;;;;;;;;;;5013629;28;20085;-83
2024/04/01 07:40:05;;;;;;;1999.90;999.90;;;;;;;;;;5021031;28;20135;-83
2024/04/01 07:42:30;;;;;;;1999.90;999.90;;;;;;;;;;5017284;28;20046;-85
2024/04/01 07:44:57;;;;;;;1999.90;999.90;;;;;;;;;;5019561;28;20053;-83
2024/04/01 07:47:23;;;;;;;1999.90;999.90;;;;;;;;;;5020258;28;20042;-83
2024/04/01 07:49:49;;;;;;;1999.90;999.90;;;;;;;;;;5017594;28;20108;-83
2024/04/01 07:52:15;;;;;;;1999.90;999.90;;;;;;;;;;5014049;28;20145;-82
2024/04/01 07:54:41;;;;;;;1999.90;999.90;;;;;;;;;;5022052;28;20132;-82
2024/04/01 07:57:10;;;;;;;1999.90;999.90;;;;;;;;;;5019378;28;20050;-82
2024/04/01 07:59:37;;;;;;;1999.90;999.90;;;;;;;;;;5020666;28;20053;-84
2024/04/01 08:02:08;;;;;;;1999.90;999.90;;;;;;;;;;5022548;28;20053;-83
2024/04/01 08:04:34;;;;;;;1999.90;999.90;;;;;;;;;;5019981;28;20049;-84
2024/04/01 08:07:00;;;;;;;1999.90;999.90;;;;;;;;;;5019249;28;20785;-84
2024/04/01 08:09:26;;;;;;;1999.90;999.90;;;;;;;;;;5026338;28;20053;-84
2024/04/01 08:11:52;;;;;;;1999.90;999.90;;;;;;;;;;5023828;28;20095;-83
2024/04/01 08:14:20;;;;;;;1999.90;999.90;;;;;;;;;;5021248;28;20057;-82
2024/04/01 08:16:46;;;;;;;1999.90;999.90;;;;;;;;;;4977090;28;1254038;-82
2024/04/01 08:19:15;;;;;;;1999.90;999.90;;;;;;;;;;5020984;28;20046;-81
2024/04/01 08:21:41;;;;;;;1999.90;999.90;;;;;;;;;;5024182;28;20052;-82
2024/04/01 08:24:08;;;;;;;1999.90;999.90;;;;;;;;;;5020490;28;20049;-83
2024/04/01 08:26:33;;;;;;;1999.90;999.90;;;;;;;;;;5018732;28;20052;-83
2024/04/01 08:29:00;;;;;;;1999.90;999.90;;;;;;;;;;5023259;28;20700;-83
2024/04/01 08:31:26;;;;;;;1999.90;999.90;;;;;;;;;;5021568;28;20061;-85
2024/04/01 08:33:53;;;;;;;1999.90;999.90;;;;;;;;;;5021191;28;20503;-83
2024/04/01 08:36:19;;;;;;;1999.90;999.90;;;;;;;;;;5021748;28;20064;-84
2024/04/01 08:38:45;;;;;;;1999.90;999.90;;;;;;;;;;5024117;28;20054;-83
2024/04/01 08:41:13;;;;;;;1999.90;999.90;;;;;;;;;;5021119;28;20042;-83
2024/04/01 08:43:41;;;;;;;1999.90;999.90;;;;;;;;;;5023888;28;20053;-83
2024/04/01 08:46:08;;;;;;;1999.90;999.90;;;;;;;;;;5019555;28;20042;-83
2024/04/01 08:48:37;;;;;;;1999.90;999.90;;;;;;;;;;5022654;28;20049;-83
2024/04/01 08:51:04;;;;;;;1999.90;999.90;;;;;;;;;;5023644;28;20050;-82
2024/04/01 08:53:44;;;;;;;1999.90;999.90;;;;;;;;;;5022273;28;20128;-85
2024/04/01 08:56:10;;;;;;;1999.90;999.90;;;;;;;;;;5020064;28;20049;-83
2024/04/01 08:58:37;;;;;;;1999.90;999.90;;;;;;;;;;5023528;28;20056;-83
2024/04/01 09:01:03;;;;;;;1999.90;999.90;;;;;;;;;;5018638;28;20064;-83
2024/04/01 09:03:30;;;;;;;1999.90;999.90;;;;;;;;;;5020339;28;20408;-83
2024/04/01 09:05:58;;;;;;;1999.90;999.90;;;;;;;;;;5017355;28;20495;-83
2024/04/01 09:08:25;;;;;;;1999.90;999.90;;;;;;;;;;5021454;28;20496;-82
2024/04/01 09:10:51;;;;;;;1999.90;999.90;;;;;;;;;;5019424;28;20123;-82
2024/04/01 09:13:18;;;;;;;1999.90;999.90;;;;;;;;;;5022196;28;20376;-84
2024/04/01 09:15:45;;;;;;;1999.90;999.90;;;;;;;;;;5023137;28;20065;-83
2024/04/01 09:18:13;;;;;;;1999.90;999.90;;;;;;;;;;5021017;28;20111;-84
2024/04/01 09:20:39;;;;;;;1999.90;999.90;;;;;;;;;;5025740;28;20050;-83
2024/04/01 09:23:08;;;;;;;1999.90;999.90;;;;;;;;;;5017887;28;20045;-83
2024/04/01 09:25:34;;;;;;;1999.90;999.90;;;;;;;;;;5019657;28;20134;-82
2024/04/01 09:28:00;;;;;;;1999.90;999.90;;;;;;;;;;5020696;28;20499;-83
2024/04/01 09:30:26;;;;;;;1999.90;999.90;;;;;;;;;;5018655;28;20052;-79
2024/04/01 09:32:53;;;;;;;1999.90;999.90;;;;;;;;;;5023683;28;20045;-81
2024/04/01 09:35:21;;;;;;;1999.90;999.90;;;;;;;;;;5023295;28;20069;-80
2024/04/01 09:37:48;;;;;;;1999.90;999.90;;;;;;;;;;5023526;28;20563;-79
2024/04/01 09:40:16;;;;;;;1999.90;999.90;;;;;;;;;;5018473;28;20107;-82
2024/04/01 09:42:43;;;;;;;1999.90;999.90;;;;;;;;;;5020423;28;20566;-84
2024/04/01 09:45:09;;;;;;;1999.90;999.90;;;;;;;;;;5022977;28;20099;-81
2024/04/01 09:47:37;;;;;;;1999.90;999.90;;;;;;;;;;5020998;28;20046;-82
2024/04/01 09:50:04;;;;;;;1999.90;999.90;;;;;;;;;;5018490;28;20042;-84
2024/04/01 09:52:31;;;;;;;1999.90;999.90;;;;;;;;;;5024579;28;20099;-83
2024/04/01 09:55:05;;;;;;;1999.90;999.90;;;;;;;;;;5020815;28;20053;-82
2024/04/01 09:58:03;;;;;;;1999.90;999.90;;;;;;;;;;5015551;28;20131;-83
2024/04/01 10:00:39;;;;;;;1999.90;999.90;;;;;;;;;;5021165;28;20064;-83
2024/04/01 10:03:40;;;;;;;1999.90;999.90;;;;;;;;;;5021693;28;20049;-82
2024/04/01 10:06:49;;;;;;;1999.90;999.90;;;;;;;;;;5018933;28;20041;-82
2024/04/01 10:09:53;;;;;;;1999.90;999.90;;;;;;;;;;5024282;28;20054;-81
2024/04/01 10:13:00;;;;;;;1999.90;999.90;;;;;;;;;;4998975;28;20119;-81
2024/04/01 10:15:49;;;;;;;1999.90;999.90;;;;;;;;;;4978251;28;20053;-82
2024/04/01 10:18:35;;;;;;;1999.90;999.90;;;;;;;;;;5017551;28;20049;-83
2024/04/01 10:21:19;;;;;;;1999.90;999.90;;;;;;;;;;5022299;28;20514;-84
2024/04/01 10:24:38;;;;;;;1999.90;999.90;;;;;;;;;;5022669;28;20064;-82
2024/04/01 10:27:48;;;;;;;1999.90;999.90;;;;;;;;;;4942646;29;20105;-82
2024/04/01 10:30:54;;;;;;;1999.90;999.90;;;;;;;;;;4943118;29;20502;-83
2024/04/01 10:33:45;;;;;;;1999.90;999.90;;;;;;;;;;5020398;28;20144;-83
2024/04/01 10:36:14;;;;;;;1999.90;999.90;;;;;;;;;;5005274;28;20052;-81
2024/04/01 10:39:17;;;;;;;1999.90;999.90;;;;;;;;;;5019443;28;20053;-83
2024/04/01 10:42:08;;;;;;;1999.90;999.90;;;;;;;;;;5025184;28;20053;-85
2024/04/01 10:45:11;;;;;;;1999.90;999.90;;;;;;;;;;5018860;28;20054;-84
2024/04/01 10:48:07;;;;;;;1999.90;999.90;;;;;;;;;;4996032;28;20052;-83
2024/04/01 10:51:02;;;;;;;1999.90;999.90;;;;;;;;;;5022291;28;20051;-83
2024/04/01 10:54:00;;;;;;;1999.90;999.90;;;;;;;;;;5023162;28;20049;-85
2024/04/01 10:56:59;;;;;;;1999.90;999.90;;;;;;;;;;4936833;29;20067;-83
2024/04/01 11:00:05;;;;;;;1999.90;999.90;;;;;;;;;;5022320;28;20057;-82
2024/04/01 11:03:16;;;;;;;1999.90;999.90;;;;;;;;;;5018173;28;20499;-84
2024/04/01 11:06:20;;;;;;;1999.90;999.90;;;;;;;;;;5018549;28;20088;-83
2024/04/01 11:09:07;;;;;;;1999.90;999.90;;;;;;;;;;5012465;28;20054;-87
2024/04/01 11:11:42;;;;;;;1999.90;999.90;;;;;;;;;;5020620;28;20423;-86
2024/04/01 11:14:08;;;;;;;1999.90;999.90;;;;;;;;;;5021239;28;20136;-84
2024/04/01 11:16:38;;;;;;;1999.90;999.90;;;;;;;;;;5022832;28;20292;-87
2024/04/01 11:19:40;;;;;;;1999.90;999.90;;;;;;;;;;5020249;28;20050;-86
2024/04/01 11:22:14;;;;;;;1999.90;999.90;;;;;;;;;;5017632;28;20056;-84
2024/04/01 11:24:46;;;;;;;1999.90;999.90;;;;;;;;;;5022819;28;20050;-85
2024/04/01 11:27:51;;;;;;;1999.90;999.90;;;;;;;;;;5021511;28;20046;-83
2024/04/01 11:30:34;;;;;;;1999.90;999.90;;;;;;;;;;4959317;28;20060;-83
2024/04/01 11:33:04;;;;;;;1999.90;999.90;;;;;;;;;;5019443;28;20835;-83
2024/04/01 11:35:42;;;;;;;1999.90;999.90;;;;;;;;;;5018723;28;20053;-84
2024/04/01 11:38:33;;;;;;;1999.90;999.90;;;;;;;;;;5021808;28;20053;-83
2024/04/01 11:40:59;;;;;;;1999.90;999.90;;;;;;;;;;5017773;28;20049;-82
2024/04/01 11:43:28;;;;;;;1999.90;999.90;;;;;;;;;;5023531;28;20099;-84
2024/04/01 11:45:54;;;;;;;1999.90;999.90;;;;;;;;;;5023101;28;20480;-82
2024/04/01 11:48:22;;;;;;;1999.90;999.90;;;;;;;;;;5022386;28;20137;-84
2024/04/01 11:50:48;;;;;;;1999.90;999.90;;;;;;;;;;5019796;28;20530;-80
2024/04/01 11:53:16;;;;;;;1999.90;999.90;;;;;;;;;;5017677;28;20057;-84
2024/04/01 11:55:49;;;;;;;1999.90;999.90;;;;;;;;;;5015902;28;20052;-84
2024/04/01 11:58:16;;;;;;;1999.90;999.90;;;;;;;;;;5016795;28;20053;-85
2024/04/01 12:00:55;;;;;;;1999.90;999.90;;;;;;;;;;5018370;28;20049;-79
2024/04/01 12:03:23;;;;;;;1999.90;999.90;;;;;;;;;;5020824;28;20058;-79
2024/04/01 12:05:50;;;;;;;1999.90;999.90;;;;;;;;;;5020119;28;20053;-81
2024/04/01 12:08:20;;;;;;;1999.90;999.90;;;;;;;;;;5019677;28;20140;-78
2024/04/01 12:10:46;;;;;;;1999.90;999.90;;;;;;;;;;5015725;28;20056;-84
2024/04/01 12:13:14;;;;;;;1999.90;999.90;;;;;;;;;;5016580;28;20053;-83
2024/04/01 12:15:41;;;;;;;1999.90;999.90;;;;;;;;;;5021908;28;20057;-84
2024/04/01 12:18:10;;;;;;;1999.90;999.90;;;;;;;;;;5021989;28;20133;-84
2024/04/01 12:20:38;;;;;;;1999.90;999.90;;;;;;;;;;5022571;28;20053;-85
2024/04/01 12:23:08;;;;;;;1999.90;999.90;;;;;;;;;;5020612;28;20119;-84
2024/04/01 12:25:35;;;;;;;1999.90;999.90;;;;;;;;;;5017997;28;20053;-84
2024/04/01 12:28:04;;;;;;;1999.90;999.90;;;;;;;;;;5019183;28;20053;-82
2024/04/01 12:30:34;;;;;;;1999.90;999.90;;;;;;;;;;5016725;28;20058;-85
2024/04/01 12:33:02;;;;;;;1999.90;999.90;;;;;;;;;;5017911;28;20092;-83
2024/04/01 12:35:28;;;;;;;1999.90;999.90;;;;;;;;;;5019174;28;20057;-83
2024/04/01 12:37:55;;;;;;;1999.90;999.90;;;;;;;;;;5014418;28;20046;-83
2024/04/01 12:40:21;;;;;;;1999.90;999.90;;;;;;;;;;5015472;28;20604;-83
2024/04/01 12:42:49;;;;;;;1999.90;999.90;;;;;;;;;;5020966;28;20046;-84
2024/04/01 12:45:14;;;;;;;1999.90;999.90;;;;;;;;;;5020694;28;20052;-84
2024/04/01 12:47:41;;;;;;;1999.90;999.90;;;;;;;;;;5020473;28;20049;-82
2024/04/01 12:50:10;;;;;;;1999.90;999.90;;;;;;;;;;5023475;28;20054;-85
2024/04/01 12:52:44;;;;;;;1999.90;999.90;;;;;;;;;;5021179;28;20108;-83
2024/04/01 12:55:22;;;;;;;1999.90;999.90;;;;;;;;;;5018473;28;20064;-83
2024/04/01 12:58:04;;;;;;;1999.90;999.90;;;;;;;;;;5022165;28;20635;-84
2024/04/01 13:00:36;;;;;;;1999.90;999.90;;;;;;;;;;5022298;28;20053;-86
2024/04/01 13:03:37;;;;;;;1999.90;999.90;;;;;;;;;;5018351;28;20053;-85
2024/04/01 13:06:11;;;;;;;1999.90;999.90;;;;;;;;;;5015391;28;20046;-84
2024/04/01 13:08:49;;;;;;;1999.90;999.90;;;;;;;;;;5019689;28;20049;-84
2024/04/01 13:11:29;;;;;;;1999.90;999.90;;;;;;;;;;5023246;28;20049;-84
2024/04/01 13:14:09;;;;;;;1999.90;999.90;;;;;;;;;;5022906;28;20156;-82
2024/04/01 13:16:42;;;;;;;1999.90;999.90;;;;;;;;;;5021027;28;20057;-84
2024/04/01 13:19:15;;;;;;;1999.90;999.90;;;;;;;;;;5023524;28;20099;-84
2024/04/01 13:21:50;;;;;;;1999.90;999.90;;;;;;;;;;5023099;28;20064;-85
2024/04/01 13:24:23;;;;;;;1999.90;999.90;;;;;;;;;;5022014;28;20509;-84
2024/04/01 13:26:59;;;;;;;1999.90;999.90;;;;;;;;;;5022022;28;20397;-83
2024/04/01 13:29:42;;;;;;;1999.90;999.90;;;;;;;;;;5023588;28;20060;-84
2024/04/01 13:32:19;;;;;;;1999.90;999.90;;;;;;;;;;5022891;28;20511;-85
2024/04/01 13:34:56;;;;;;;1999.90;999.90;;;;;;;;;;5024168;28;20077;-83
2024/04/01 13:37:31;;;;;;;1999.90;999.90;;;;;;;;;;5021533;28;20046;-84
2024/04/01 13:40:10;;;;;;;1999.90;999.90;;;;;;;;;;5020624;28;20053;-82
2024/04/01 13:42:49;;;;;;;1999.90;999.90;;;;;;;;;;5035193;28;20049;-83
2024/04/01 13:45:32;;;;;;;1999.90;999.90;;;;;;;;;;5037447;28;20061;-83
2024/04/01 13:48:14;;;;;;;1999.90;999.90;;;;;;;;;;5019751;28;20052;-83
2024/04/01 13:50:53;;;;;;;1999.90;999.90;;;;;;;;;;5018373;28;20057;-84
2024/04/01 13:53:38;;;;;;;1999.90;999.90;;;;;;;;;;5021493;28;20152;-83
2024/04/01 13:56:38;;;;;;;1999.90;999.90;;;;;;;;;;5023103;28;20144;-83
2024/04/01 13:59:17;;;;;;;1999.90;999.90;;;;;;;;;;5017351;28;20049;-83